createdAt,value
2022-12-25T00:02:19.131Z,7.10
2022-12-25T00:05:21.094Z,7.20
2022-12-25T00:08:22.766Z,7.10
2022-12-25T00:11:24.575Z,7.10
2022-12-25T00:14:26.232Z,7.00
2022-12-25T00:17:27.961Z,7.00
2022-12-25T00:20:29.645Z,7.00
2022-12-25T00:23:32.104Z,7.00
2022-12-25T00:26:33.751Z,7.00
2022-12-25T00:29:35.617Z,7.10
2022-12-25T00:32:37.703Z,7.10
2022-12-25T00:35:39.382Z,7.10
2022-12-25T00:38:41.571Z,7.10
2022-12-25T00:42:01.848Z,7.10
2022-12-25T00:45:05.672Z,7.10
2022-12-25T00:48:07.357Z,7.20
2022-12-25T00:51:11.478Z,7.20
2022-12-25T00:54:13.361Z,7.20
2022-12-25T00:57:15.023Z,7.20
2022-12-25T01:00:16.856Z,7.20
2022-12-25T01:03:18.946Z,7.20
2022-12-25T01:06:20.708Z,7.20
2022-12-25T01:09:40.818Z,7.20
2022-12-25T01:12:43.410Z,7.20
2022-12-25T01:15:45.075Z,7.20
2022-12-25T01:18:46.789Z,7.20
2022-12-25T01:21:48.503Z,7.30
2022-12-25T01:24:50.185Z,7.30
2022-12-25T01:27:51.853Z,7.30
2022-12-25T01:30:53.537Z,7.30
2022-12-25T01:33:55.201Z,7.30
2022-12-25T01:36:56.966Z,7.40
2022-12-25T01:39:58.663Z,7.40
2022-12-25T01:43:00.354Z,7.40
2022-12-25T01:46:03.914Z,7.50
2022-12-25T01:49:11.643Z,7.50
2022-12-25T01:52:23.631Z,7.50
2022-12-25T01:55:27.778Z,7.50
2022-12-25T01:58:30.082Z,7.50
2022-12-25T02:01:32.356Z,7.60
2022-12-25T02:04:41.359Z,7.60
2022-12-25T02:07:43.823Z,7.70
2022-12-25T02:10:45.717Z,7.70
2022-12-25T02:13:47.426Z,7.70
2022-12-25T02:16:58.278Z,7.60
2022-12-25T02:20:22.352Z,7.60
2022-12-25T02:23:39.517Z,7.70
2022-12-25T02:26:47.316Z,7.70
2022-12-25T02:30:04.893Z,7.70
2022-12-25T02:33:37.246Z,7.80
2022-12-25T02:36:56.238Z,7.70
2022-12-25T02:40:03.969Z,7.70
2022-12-25T02:43:34.296Z,7.70
2022-12-25T02:46:54.567Z,7.70
2022-12-25T02:50:16.571Z,7.70
2022-12-25T02:53:37.047Z,7.70
2022-12-25T02:57:00.369Z,7.80
2022-12-25T03:00:22.765Z,7.80
2022-12-25T03:03:47.067Z,7.80
2022-12-25T03:07:09.878Z,7.80
2022-12-25T03:10:33.151Z,7.80
2022-12-25T03:13:39.645Z,7.70
2022-12-25T03:16:53.937Z,7.70
2022-12-25T03:20:14.148Z,7.70
2022-12-25T03:23:38.665Z,7.70
2022-12-25T03:26:55.723Z,7.80
2022-12-25T03:30:15.981Z,7.80
2022-12-25T03:34:07.463Z,7.80
2022-12-25T03:37:40.593Z,7.90
2022-12-25T03:41:40.671Z,7.90
2022-12-25T03:45:21.787Z,7.90
2022-12-25T03:48:44.017Z,7.90
2022-12-25T03:52:06.160Z,7.90
2022-12-25T03:55:30.354Z,7.90
2022-12-25T03:58:50.906Z,8.00
2022-12-25T04:02:11.484Z,8.00
2022-12-25T04:05:31.628Z,8.00
2022-12-25T04:08:51.957Z,8.10
2022-12-25T04:12:12.352Z,8.10
2022-12-25T04:15:32.879Z,8.10
2022-12-25T04:18:53.303Z,8.10
2022-12-25T04:22:13.701Z,8.10
2022-12-25T04:25:34.128Z,8.10
2022-12-25T04:28:54.582Z,8.10
2022-12-25T04:32:14.982Z,8.20
2022-12-25T04:35:35.287Z,8.10
2022-12-25T04:38:38.216Z,8.10
2022-12-25T04:41:39.919Z,8.10
2022-12-25T04:44:41.581Z,8.10
2022-12-25T04:47:43.224Z,8.10
2022-12-25T04:50:44.839Z,8.10
2022-12-25T04:53:47.535Z,8.10
2022-12-25T04:56:49.309Z,8.10
2022-12-25T04:59:50.979Z,8.20
2022-12-25T05:02:52.733Z,8.10
2022-12-25T05:05:54.595Z,8.20
2022-12-25T05:08:56.364Z,8.10
2022-12-25T05:11:58.039Z,8.10
2022-12-25T05:14:59.724Z,8.10
2022-12-25T05:18:01.410Z,8.10
2022-12-25T05:21:04.375Z,8.10
2022-12-25T05:24:06.311Z,8.10
2022-12-25T05:27:08.035Z,8.10
2022-12-25T05:30:10.058Z,8.10
2022-12-25T05:33:11.848Z,8.20
2022-12-25T05:36:13.600Z,8.30
2022-12-25T05:39:15.291Z,8.30
2022-12-25T05:42:16.975Z,8.30
2022-12-25T05:45:18.744Z,8.30
2022-12-25T05:48:20.532Z,8.30
2022-12-25T05:51:22.177Z,8.30
2022-12-25T05:54:23.850Z,8.30
2022-12-25T05:57:25.896Z,8.40
2022-12-25T06:00:27.737Z,8.40
2022-12-25T06:03:29.565Z,8.30
2022-12-25T06:06:31.284Z,8.40
2022-12-25T06:09:32.920Z,8.40
2022-12-25T06:12:34.706Z,8.40
2022-12-25T06:15:40.292Z,8.30
2022-12-25T06:18:45.552Z,8.40
2022-12-25T06:21:47.288Z,8.30
2022-12-25T06:24:48.949Z,8.30
2022-12-25T06:27:50.665Z,8.30
2022-12-25T06:30:52.343Z,8.30
2022-12-25T06:33:54.028Z,8.30
2022-12-25T06:36:55.659Z,8.30
2022-12-25T06:39:57.363Z,8.30
2022-12-25T06:42:59.014Z,8.40
2022-12-25T06:46:06.161Z,8.30
2022-12-25T06:49:07.930Z,8.30
2022-12-25T06:52:09.593Z,8.40
2022-12-25T06:55:11.539Z,8.40
2022-12-25T06:58:13.224Z,8.40
2022-12-25T07:01:24.253Z,8.40
2022-12-25T07:04:28.948Z,8.30
2022-12-25T07:07:30.580Z,8.40
2022-12-25T07:10:32.313Z,8.30
2022-12-25T07:13:33.982Z,8.30
2022-12-25T07:16:35.731Z,8.20
2022-12-25T07:19:44.451Z,8.20
2022-12-25T07:22:46.860Z,8.20
2022-12-25T07:25:56.497Z,8.20
2022-12-25T07:28:58.425Z,8.30
2022-12-25T07:32:00.230Z,8.30
2022-12-25T07:35:01.951Z,8.30
2022-12-25T07:38:03.608Z,8.20
2022-12-25T07:41:09.636Z,8.30
2022-12-25T07:44:11.400Z,8.20
2022-12-25T07:47:14.963Z,8.20
2022-12-25T07:50:17.028Z,8.20
2022-12-25T07:53:18.675Z,8.20
2022-12-25T07:56:20.975Z,8.30
2022-12-25T07:59:22.686Z,8.40
2022-12-25T08:02:28.483Z,8.50
2022-12-25T08:05:32.812Z,8.40
2022-12-25T08:08:35.928Z,8.40
2022-12-25T08:11:38.356Z,8.50
2022-12-25T08:14:40.160Z,8.50
2022-12-25T08:17:41.823Z,8.50
2022-12-25T08:20:43.514Z,8.60
2022-12-25T08:23:46.678Z,8.70
2022-12-25T08:26:48.446Z,8.70
2022-12-25T08:29:50.156Z,8.70
2022-12-25T08:32:51.907Z,8.70
2022-12-25T08:35:53.723Z,8.60
2022-12-25T08:39:02.682Z,8.50
2022-12-25T08:42:04.919Z,8.50
2022-12-25T08:45:07.185Z,8.40
2022-12-25T08:48:15.838Z,8.50
2022-12-25T08:51:20.096Z,8.60
2022-12-25T08:54:21.782Z,8.90
2022-12-25T08:57:23.543Z,9.10
2022-12-25T09:00:25.214Z,9.30
2022-12-25T09:03:27.101Z,9.40
2022-12-25T09:06:28.875Z,9.30
2022-12-25T09:09:30.589Z,9.30
2022-12-25T09:12:32.250Z,9.30
2022-12-25T09:15:34.063Z,9.20
2022-12-25T09:18:36.338Z,9.30
2022-12-25T09:21:38.159Z,9.30
2022-12-25T09:24:39.943Z,9.30
2022-12-25T09:27:43.646Z,9.30
2022-12-25T09:30:45.569Z,9.30
2022-12-25T09:33:47.580Z,9.30
2022-12-25T09:36:52.487Z,9.30
2022-12-25T09:39:54.196Z,9.30
2022-12-25T09:42:57.005Z,9.40
2022-12-25T09:46:00.440Z,9.60
2022-12-25T09:49:07.473Z,9.60
2022-12-25T09:52:18.408Z,9.60
2022-12-25T09:55:24.120Z,9.50
2022-12-25T09:58:26.937Z,9.40
2022-12-25T10:01:59.564Z,9.50
2022-12-25T10:05:19.444Z,9.40
2022-12-25T10:08:36.187Z,9.30
2022-12-25T10:12:02.088Z,9.20
2022-12-25T10:15:32.022Z,9.30
2022-12-25T10:18:44.599Z,9.20
2022-12-25T10:21:47.264Z,9.20
2022-12-25T10:24:55.779Z,9.20
2022-12-25T10:28:04.004Z,9.30
2022-12-25T10:31:24.983Z,9.30
2022-12-25T10:34:28.832Z,9.30
2022-12-25T10:37:30.524Z,9.30
2022-12-25T10:40:44.449Z,9.30
2022-12-25T10:43:57.264Z,9.30
2022-12-25T10:47:00.655Z,9.30
2022-12-25T10:50:12.683Z,9.20
2022-12-25T10:53:29.013Z,9.30
2022-12-25T10:56:30.878Z,9.20
2022-12-25T10:59:42.958Z,9.10
2022-12-25T11:02:44.969Z,9.20
2022-12-25T11:05:51.439Z,9.20
2022-12-25T11:09:01.467Z,9.10
2022-12-25T11:12:03.330Z,9.10
2022-12-25T11:15:37.066Z,9.10
2022-12-25T11:18:48.734Z,9.00
2022-12-25T11:21:53.670Z,8.90
2022-12-25T11:24:55.646Z,8.90
2022-12-25T11:28:03.211Z,8.80
2022-12-25T11:31:20.054Z,8.80
2022-12-25T11:34:40.929Z,8.80
2022-12-25T11:37:46.444Z,8.70
2022-12-25T11:40:51.960Z,8.70
2022-12-25T11:43:59.846Z,8.70
2022-12-25T11:47:14.739Z,8.70
2022-12-25T11:50:30.868Z,8.80
2022-12-25T11:53:44.119Z,8.80
2022-12-25T11:56:46.142Z,8.80
2022-12-25T11:59:57.112Z,8.70
2022-12-25T12:03:37.666Z,8.70
2022-12-25T12:06:55.529Z,8.80
2022-12-25T12:10:16.154Z,8.80
2022-12-25T12:13:23.939Z,8.80
2022-12-25T12:16:28.288Z,8.90
2022-12-25T12:19:31.432Z,8.90
2022-12-25T12:22:33.099Z,8.90
2022-12-25T12:25:39.740Z,8.90
2022-12-25T12:28:45.900Z,8.80
2022-12-25T12:31:49.934Z,8.90
2022-12-25T12:34:51.811Z,8.80
2022-12-25T12:37:57.073Z,8.80
2022-12-25T12:41:02.749Z,8.80
2022-12-25T12:44:05.711Z,8.80
2022-12-25T12:47:47.683Z,8.70
2022-12-25T12:50:49.394Z,8.70
2022-12-25T12:53:51.165Z,8.80
2022-12-25T12:57:00.319Z,8.70
2022-12-25T13:00:09.873Z,8.70
2022-12-25T13:03:42.008Z,8.70
2022-12-25T13:06:55.359Z,8.70
2022-12-25T13:10:34.142Z,8.70
2022-12-25T13:13:39.602Z,8.70
2022-12-25T13:16:44.149Z,8.70
2022-12-25T13:19:48.125Z,8.70
2022-12-25T13:22:52.884Z,8.70
2022-12-25T13:26:04.234Z,8.70
2022-12-25T13:29:11.237Z,8.70
2022-12-25T13:32:24.064Z,8.70
2022-12-25T13:35:25.758Z,8.60
2022-12-25T13:38:29.115Z,8.60
2022-12-25T13:42:00.314Z,8.70
2022-12-25T13:45:15.711Z,8.70
2022-12-25T13:48:20.148Z,8.60
2022-12-25T13:51:21.796Z,8.50
2022-12-25T13:54:24.214Z,8.50
2022-12-25T13:57:39.401Z,8.50
2022-12-25T14:00:53.157Z,8.50
2022-12-25T14:03:55.387Z,8.60
2022-12-25T14:06:57.091Z,8.50
2022-12-25T14:10:01.597Z,8.50
2022-12-25T14:13:09.339Z,8.50
2022-12-25T14:16:17.301Z,8.50
2022-12-25T14:19:31.135Z,8.50
2022-12-25T14:22:34.391Z,8.50
2022-12-25T14:25:45.842Z,8.50
2022-12-25T14:29:15.620Z,8.50
2022-12-25T14:32:24.555Z,8.50
2022-12-25T14:35:26.229Z,8.40
2022-12-25T14:38:34.825Z,8.50
2022-12-25T14:41:39.352Z,8.50
2022-12-25T14:44:41.367Z,8.50
2022-12-25T14:47:54.742Z,8.40
2022-12-25T14:51:01.412Z,8.40
2022-12-25T14:54:05.183Z,8.50
2022-12-25T14:57:06.918Z,8.40
2022-12-25T15:00:20.555Z,8.50
2022-12-25T15:03:28.095Z,8.50
2022-12-25T15:06:31.061Z,8.50
2022-12-25T15:09:33.614Z,8.50
2022-12-25T15:12:35.316Z,8.50
2022-12-25T15:15:37.247Z,8.50
2022-12-25T15:18:44.592Z,8.50
2022-12-25T15:21:46.423Z,8.50
2022-12-25T15:24:48.188Z,8.50
2022-12-25T15:27:49.917Z,8.60
2022-12-25T15:30:51.967Z,8.60
2022-12-25T15:33:55.528Z,8.60
2022-12-25T15:36:57.360Z,8.60
2022-12-25T15:39:59.593Z,8.60
2022-12-25T15:43:06.349Z,8.70
2022-12-25T15:46:12.791Z,8.70
2022-12-25T15:49:15.232Z,8.70
2022-12-25T15:52:18.240Z,8.70
2022-12-25T15:55:20.262Z,8.80
2022-12-25T15:58:22.135Z,8.80
2022-12-25T16:01:23.887Z,8.80
2022-12-25T16:04:27.953Z,8.90
2022-12-25T16:07:31.858Z,8.80
2022-12-25T16:10:38.509Z,8.80
2022-12-25T16:13:40.755Z,8.80
2022-12-25T16:16:42.465Z,8.80
2022-12-25T16:19:47.071Z,8.80
2022-12-25T16:22:48.706Z,8.90
2022-12-25T16:25:50.807Z,8.90
2022-12-25T16:28:52.436Z,8.90
2022-12-25T16:31:54.071Z,9.00
2022-12-25T16:34:55.735Z,9.00
2022-12-25T16:37:57.447Z,8.90
2022-12-25T16:41:00.811Z,9.00
2022-12-25T16:44:09.463Z,8.90
2022-12-25T16:47:11.348Z,9.00
2022-12-25T16:50:13.063Z,9.00
2022-12-25T16:53:14.844Z,9.00
2022-12-25T16:56:20.526Z,9.00
2022-12-25T16:59:22.375Z,8.90
2022-12-25T17:02:24.617Z,8.90
2022-12-25T17:05:26.401Z,8.90
2022-12-25T17:08:28.835Z,8.80
2022-12-25T17:11:31.794Z,8.90
2022-12-25T17:14:34.613Z,8.90
2022-12-25T17:17:36.326Z,8.90
2022-12-25T17:20:38.189Z,8.90
2022-12-25T17:23:40.263Z,8.90
2022-12-25T17:26:43.894Z,8.90
2022-12-25T17:29:47.737Z,8.90
2022-12-25T17:32:52.183Z,8.90
2022-12-25T17:35:57.357Z,8.90
2022-12-25T17:39:05.855Z,8.90
2022-12-25T17:42:07.499Z,8.90
2022-12-25T17:45:09.854Z,8.90
2022-12-25T17:48:11.522Z,9.00
2022-12-25T17:51:16.218Z,8.90
2022-12-25T17:54:17.954Z,9.00
2022-12-25T17:57:19.674Z,9.00
2022-12-25T18:00:21.464Z,9.00
2022-12-25T18:03:23.624Z,9.00
2022-12-25T18:06:27.865Z,9.10
2022-12-25T18:09:30.018Z,9.00
2022-12-25T18:12:31.795Z,9.00
2022-12-25T18:15:40.177Z,9.00
2022-12-25T18:18:49.504Z,9.10
2022-12-25T18:21:53.473Z,9.10
2022-12-25T18:24:55.105Z,9.00
2022-12-25T18:27:56.966Z,9.00
2022-12-25T18:30:59.209Z,9.00
2022-12-25T18:34:01.186Z,9.10
2022-12-25T18:37:03.215Z,9.10
2022-12-25T18:40:05.845Z,9.10
2022-12-25T18:43:07.804Z,9.20
2022-12-25T18:46:10.028Z,9.20
2022-12-25T18:49:12.208Z,9.20
2022-12-25T18:52:48.780Z,9.20
2022-12-25T18:55:35.789Z,9.20
2022-12-25T18:58:38.209Z,9.30
2022-12-25T19:01:40.120Z,9.20
2022-12-25T19:04:43.493Z,9.30
2022-12-25T19:07:45.104Z,9.30
2022-12-25T19:10:46.812Z,9.30
2022-12-25T19:13:48.520Z,9.30
2022-12-25T19:16:52.025Z,9.40
2022-12-25T19:19:53.860Z,9.30
2022-12-25T19:22:55.521Z,9.30
2022-12-25T19:25:57.196Z,9.30
2022-12-25T19:28:58.949Z,9.40
2022-12-25T19:32:00.912Z,9.40
2022-12-25T19:35:04.455Z,9.40
2022-12-25T19:38:06.173Z,9.40
2022-12-25T19:41:18.809Z,9.40
2022-12-25T19:44:20.557Z,9.50
2022-12-25T19:47:22.422Z,9.40
2022-12-25T19:50:28.548Z,9.50
2022-12-25T19:53:30.918Z,9.50
2022-12-25T19:56:33.374Z,9.50
2022-12-25T19:59:35.261Z,9.50
2022-12-25T20:02:36.999Z,9.50
2022-12-25T20:05:38.775Z,9.60
2022-12-25T20:08:41.041Z,9.60
2022-12-25T20:11:43.543Z,9.60
2022-12-25T20:14:45.549Z,9.70
2022-12-25T20:17:47.602Z,9.60
2022-12-25T20:20:49.364Z,9.70
2022-12-25T20:23:53.219Z,9.70
2022-12-25T20:26:58.970Z,9.70
2022-12-25T20:30:01.392Z,9.70
2022-12-25T20:33:03.100Z,9.70
2022-12-25T20:36:05.675Z,9.70
2022-12-25T20:39:09.683Z,9.70
2022-12-25T20:42:11.778Z,9.70
2022-12-25T20:45:13.453Z,9.70
2022-12-25T20:48:15.125Z,9.70
2022-12-25T20:51:19.626Z,9.70
2022-12-25T20:54:21.247Z,9.70
2022-12-25T20:57:23.040Z,9.70
2022-12-25T21:00:24.719Z,9.70
2022-12-25T21:03:26.520Z,9.80
2022-12-25T21:06:28.366Z,9.70
2022-12-25T21:09:30.109Z,9.70
2022-12-25T21:12:31.882Z,9.80
2022-12-25T21:15:38.853Z,9.80
2022-12-25T21:18:40.647Z,9.80
2022-12-25T21:21:43.540Z,9.90
2022-12-25T21:24:45.314Z,9.90
2022-12-25T21:27:46.978Z,9.90
2022-12-25T21:30:48.830Z,10.00
2022-12-25T21:33:53.706Z,10.00
2022-12-25T21:36:55.411Z,10.00
2022-12-25T21:39:57.139Z,9.90
2022-12-25T21:43:00.428Z,9.90
2022-12-25T21:46:12.710Z,9.90
2022-12-25T21:49:34.473Z,9.90
2022-12-25T21:52:36.531Z,9.90
2022-12-25T21:55:38.230Z,9.90
2022-12-25T21:58:39.906Z,9.90
2022-12-25T22:01:41.795Z,10.00
2022-12-25T22:04:43.549Z,10.00
2022-12-25T22:07:45.214Z,10.10
2022-12-25T22:10:46.867Z,10.00
2022-12-25T22:14:06.859Z,10.10
2022-12-25T22:17:28.240Z,10.10
2022-12-25T22:20:35.466Z,10.20
2022-12-25T22:23:37.116Z,10.30
2022-12-25T22:26:38.815Z,10.30
2022-12-25T22:29:40.645Z,10.30
2022-12-25T22:32:42.525Z,10.30
2022-12-25T22:35:44.156Z,10.40
2022-12-25T22:38:45.812Z,10.40
2022-12-25T22:41:48.057Z,10.40
2022-12-25T22:44:49.801Z,10.40
2022-12-25T22:47:51.497Z,10.40
2022-12-25T22:50:53.186Z,10.40
2022-12-25T22:53:57.458Z,10.40
2022-12-25T22:57:03.572Z,10.40
2022-12-25T23:00:08.766Z,10.40
2022-12-25T23:03:10.766Z,10.50
2022-12-25T23:06:12.658Z,10.50
2022-12-25T23:09:22.155Z,10.50
2022-12-25T23:12:44.524Z,10.50
2022-12-25T23:15:47.295Z,10.50
2022-12-25T23:19:07.783Z,10.50
2022-12-25T23:22:31.347Z,10.50
2022-12-25T23:25:53.734Z,10.50
2022-12-25T23:29:14.155Z,10.50
2022-12-25T23:32:25.183Z,10.50
2022-12-25T23:35:26.950Z,10.50
2022-12-25T23:38:28.665Z,10.50
2022-12-25T23:41:30.377Z,10.40
2022-12-25T23:44:32.086Z,10.50
2022-12-25T23:47:33.732Z,10.50
2022-12-25T23:50:35.402Z,10.40
2022-12-25T23:53:37.056Z,10.50
2022-12-25T23:56:39.165Z,10.50
2022-12-25T23:59:40.796Z,10.40
